This is the latest recevied weather packets stored in our database for station/object IU7URP-17. If no packets are shown the sender has not sent any weather packets the latest 10 day(s).
| Time | Temp. | Humidity | Pressure | Rain* | Wind** | Luminosity | Snow |
|---|---|---|---|---|---|---|---|
| 1787867682 | 25.56° C | 59% | 1019.7 hPa | - | - | - | - |
| 1787866478 | 25° C | 60% | 1019.8 hPa | - | - | - | - |
| 1787865274 | 25° C | 63% | 1019.9 hPa | - | - | - | - |
| 1787862866 | 25.56° C | 62% | 1019.8 hPa | - | - | - | - |
| 1787861662 | 26.11° C | 61% | 1019.5 hPa | - | - | - | - |
| 1787860458 | 26.11° C | 65% | 1019.5 hPa | - | - | - | - |
| 1787859254 | 25.56° C | 65% | 1019.9 hPa | - | - | - | - |
| 1787858050 | 26.11° C | 64% | 1019.6 hPa | - | - | - | - |
| 1787856846 | 26.11° C | 62% | 1019.3 hPa | - | - | - | - |
| 1787855642 | 26.67° C | 60% | 1019.2 hPa | - | - | - | - |
| 1787853234 | 27.78° C | 55% | 1018.6 hPa | - | - | - | - |
| 1787852030 | 28.33° C | 51% | 1018.5 hPa | - | - | - | - |
| 1787850826 | 28.89° C | 48% | 1018.2 hPa | - | - | - | - |
| 1787849622 | 30° C | 46% | 1017.9 hPa | - | - | - | - |
| 1787847214 | 31.67° C | 40% | 1017.8 hPa | - | - | - | - |
| 1787844806 | 32.22° C | 39% | 1018 hPa | - | - | - | - |
| 1787843602 | 32.78° C | 38% | 1017.9 hPa | - | - | - | - |
| 1787842398 | 33.33° C | 40% | 1017.8 hPa | - | - | - | - |
| 1787841194 | 33.89° C | 39% | 1018.1 hPa | - | - | - | - |
| 1787838786 | 34.44° C | 40% | 1018.2 hPa | - | - | - | - |
| 1787837582 | 34.44° C | 34% | 1018.3 hPa | - | - | - | - |
| 1787835174 | 35° C | 39% | 1018.4 hPa | - | - | - | - |
| 1787833969 | 35° C | 40% | 1018.5 hPa | - | - | - | - |
| 1787832766 | 35.56° C | 37% | 1018.5 hPa | - | - | - | - |
| 1787829154 | 34.44° C | 43% | 1018.6 hPa | - | - | - | - |
* Rain since midnight (hover to see other rain measurements)
** Current wind speed in m/s (hover to see current wind gust speed)